Time;durP1;ratioP1;P1;durP2;ratioP2;P2;SDS_P1;SDS_P2;PMS_P1;PMS_P2;Temp;Humidity;BMP_temperature;BMP_pressure;BME280_temperature;BME280_humidity;BME280_pressure;Samples;Min_cycle;Max_cycle;Signal;HPM_P1;HPM_P2
2023/03/23 07:44:31;;;;;;;0.00;0.00;;;;;;;;;;1714525;28;20735;-61
2023/03/23 07:45:22;;;;;;;0.00;0.00;;;;;;;;;;1722956;28;20212;-60
2023/03/23 07:46:15;;;;;;;0.00;0.00;;;;;;;;;;1719924;28;20471;-61
2023/03/23 07:47:06;;;;;;;0.00;0.00;;;;;;;;;;1720503;28;20278;-60
2023/03/23 07:47:58;;;;;;;0.00;0.00;;;;;;;;;;1718180;28;20201;-60
2023/03/23 07:48:49;;;;;;;0.00;0.00;;;;;;;;;;1717779;28;20275;-61
2023/03/23 07:49:41;;;;;;;0.00;0.00;;;;;;;;;;1723334;28;20216;-61
2023/03/23 07:50:32;;;;;;;0.00;0.00;;;;;;;;;;1721136;28;20287;-61
2023/03/23 07:51:24;;;;;;;0.00;0.00;;;;;;;;;;1719788;28;20210;-61
2023/03/23 07:52:15;;;;;;;0.00;0.00;;;;;;;;;;1721670;28;20209;-61
2023/03/23 07:53:08;;;;;;;0.00;0.00;;;;;;;;;;1718757;28;20251;-61
2023/03/23 07:53:59;;;;;;;0.00;0.00;;;;;;;;;;1722813;28;20228;-60
2023/03/23 07:54:51;;;;;;;0.00;0.00;;;;;;;;;;1724443;28;20224;-60
2023/03/23 07:55:42;;;;;;;0.00;0.00;;;;;;;;;;1719775;28;20240;-60
2023/03/23 07:56:35;;;;;;;0.00;0.00;;;;;;;;;;1718719;28;20218;-60
2023/03/23 07:57:26;;;;;;;0.00;0.00;;;;;;;;;;1721078;28;20669;-61
2023/03/23 07:58:18;;;;;;;0.00;0.00;;;;;;;;;;1723631;28;20683;-59
2023/03/23 07:59:09;;;;;;;0.00;0.00;;;;;;;;;;1722825;28;20297;-61
2023/03/23 08:00:14;;;;;;;0.00;0.00;;;;;;;;;;1723332;28;20201;-60
2023/03/23 08:01:07;;;;;;;0.00;0.00;;;;;;;;;;1728175;28;20251;-60
2023/03/23 08:01:58;;;;;;;0.00;0.00;;;;;;;;;;1732917;28;20212;-60
2023/03/23 08:02:50;;;;;;;0.00;0.00;;;;;;;;;;1737561;28;20206;-61
2023/03/23 08:03:42;;;;;;;0.00;0.00;;;;;;;;;;1735699;28;20241;-61
2023/03/23 08:04:36;;;;;;;0.00;0.00;;;;;;;;;;1737716;28;20258;-61
2023/03/23 08:05:28;;;;;;;0.00;0.00;;;;;;;;;;1735424;28;20223;-61
2023/03/23 08:06:21;;;;;;;0.00;0.00;;;;;;;;;;1732286;28;20208;-61
2023/03/23 08:07:12;;;;;;;0.00;0.00;;;;;;;;;;1733897;28;20540;-61
2023/03/23 08:08:04;;;;;;;0.03;0.03;;;;;;;;;;1732014;28;20245;-59
2023/03/23 08:08:56;;;;;;;0.00;0.00;;;;;;;;;;1736247;28;20214;-60
2023/03/23 08:09:49;;;;;;;0.00;0.00;;;;;;;;;;1732223;28;20234;-60
2023/03/23 08:10:40;;;;;;;0.00;0.00;;;;;;;;;;1734577;28;20240;-61
2023/03/23 08:11:32;;;;;;;0.00;0.00;;;;;;;;;;1731743;28;20634;-60
2023/03/23 08:12:23;;;;;;;0.00;0.00;;;;;;;;;;1735063;28;20213;-61
2023/03/23 08:13:15;;;;;;;0.00;0.00;;;;;;;;;;1734180;28;20207;-60
2023/03/23 08:14:06;;;;;;;0.00;0.00;;;;;;;;;;1736451;28;20207;-60
2023/03/23 08:14:59;;;;;;;0.00;0.00;;;;;;;;;;1737731;28;20266;-60
2023/03/23 08:15:51;;;;;;;0.00;0.00;;;;;;;;;;1734356;28;20243;-61
2023/03/23 08:16:43;;;;;;;0.00;0.00;;;;;;;;;;1737432;28;20319;-60
2023/03/23 08:17:35;;;;;;;0.00;0.00;;;;;;;;;;1736398;28;20285;-61
2023/03/23 08:18:27;;;;;;;0.00;0.00;;;;;;;;;;1735535;28;20209;-60
2023/03/23 08:19:18;;;;;;;0.00;0.00;;;;;;;;;;1738329;28;20731;-60
2023/03/23 08:20:12;;;;;;;0.00;0.00;;;;;;;;;;1737065;28;20211;-62
2023/03/23 08:21:04;;;;;;;0.00;0.00;;;;;;;;;;1734735;28;20243;-60
2023/03/23 08:21:56;;;;;;;0.00;0.00;;;;;;;;;;1736698;28;20709;-60
2023/03/23 08:22:50;;;;;;;0.00;0.00;;;;;;;;;;1732405;28;20216;-61
2023/03/23 08:23:42;;;;;;;0.00;0.00;;;;;;;;;;1737178;28;20314;-60
2023/03/23 08:24:33;;;;;;;0.00;0.00;;;;;;;;;;1733280;28;20339;-60
2023/03/23 08:25:25;;;;;;;0.00;0.00;;;;;;;;;;1733349;28;20215;-60
2023/03/23 08:26:17;;;;;;;0.00;0.00;;;;;;;;;;1732622;28;20221;-61
2023/03/23 08:27:09;;;;;;;0.00;0.00;;;;;;;;;;1735828;28;20699;-61
2023/03/23 08:28:01;;;;;;;0.00;0.00;;;;;;;;;;1738724;28;20216;-60
2023/03/23 08:28:53;;;;;;;0.00;0.00;;;;;;;;;;1735325;28;20295;-60
2023/03/23 08:29:44;;;;;;;0.00;0.00;;;;;;;;;;1737499;28;20928;-61
2023/03/23 08:30:37;;;;;;;0.00;0.00;;;;;;;;;;1734752;28;20637;-61
2023/03/23 08:31:30;;;;;;;0.00;0.00;;;;;;;;;;1735354;28;20671;-61
2023/03/23 08:32:22;;;;;;;0.00;0.00;;;;;;;;;;1735291;28;20216;-60
2023/03/23 08:33:14;;;;;;;0.00;0.00;;;;;;;;;;1736462;28;20296;-60
2023/03/23 08:34:05;;;;;;;0.00;0.00;;;;;;;;;;1737036;28;20261;-60
2023/03/23 08:34:57;;;;;;;0.00;0.00;;;;;;;;;;1737857;28;20223;-60
2023/03/23 08:35:55;;;;;;;0.00;0.00;;;;;;;;;;1735783;28;20236;-61
2023/03/23 08:36:47;;;;;;;0.00;0.00;;;;;;;;;;1732604;28;20217;-61
2023/03/23 08:37:38;;;;;;;0.00;0.00;;;;;;;;;;1735349;28;20224;-61
2023/03/23 08:38:31;;;;;;;0.00;0.00;;;;;;;;;;1735438;28;20207;-60
2023/03/23 08:39:22;;;;;;;0.00;0.00;;;;;;;;;;1734918;28;20331;-60
2023/03/23 08:40:19;;;;;;;0.00;0.00;;;;;;;;;;1730898;28;20271;-63
2023/03/23 08:41:10;;;;;;;0.00;0.00;;;;;;;;;;1738673;28;20312;-61
2023/03/23 08:42:02;;;;;;;0.00;0.00;;;;;;;;;;1737330;28;20292;-61
2023/03/23 08:42:54;;;;;;;0.00;0.00;;;;;;;;;;1737830;28;20276;-61
2023/03/23 08:43:46;;;;;;;0.00;0.00;;;;;;;;;;1735997;28;20758;-61
2023/03/23 08:44:37;;;;;;;0.00;0.00;;;;;;;;;;1738010;28;20251;-60
2023/03/23 08:45:30;;;;;;;0.00;0.00;;;;;;;;;;1734382;28;20417;-61
2023/03/23 08:46:21;;;;;;;0.00;0.00;;;;;;;;;;1739073;28;20211;-61
2023/03/23 08:47:14;;;;;;;0.00;0.00;;;;;;;;;;1737140;28;20196;-61
2023/03/23 08:48:07;;;;;;;0.00;0.00;;;;;;;;;;1736100;28;20629;-60
2023/03/23 08:48:59;;;;;;;0.00;0.00;;;;;;;;;;1736740;28;20199;-60
2023/03/23 08:49:52;;;;;;;0.00;0.00;;;;;;;;;;1732740;28;20269;-61
2023/03/23 08:50:44;;;;;;;0.00;0.00;;;;;;;;;;1734630;28;20247;-60
2023/03/23 08:51:36;;;;;;;0.00;0.00;;;;;;;;;;1736789;28;20215;-60
2023/03/23 08:52:29;;;;;;;0.00;0.00;;;;;;;;;;1736675;28;20204;-61
2023/03/23 08:53:20;;;;;;;0.00;0.00;;;;;;;;;;1735796;28;20350;-61
2023/03/23 08:54:12;;;;;;;0.00;0.00;;;;;;;;;;1738775;28;20204;-60
2023/03/23 08:55:04;;;;;;;0.00;0.00;;;;;;;;;;1737929;28;20268;-60
2023/03/23 08:55:56;;;;;;;0.00;0.00;;;;;;;;;;1736832;28;20602;-60
2023/03/23 08:56:47;;;;;;;0.00;0.00;;;;;;;;;;1738045;28;20749;-61
2023/03/23 08:57:42;;;;;;;0.00;0.00;;;;;;;;;;1734853;28;20682;-60
2023/03/23 08:58:34;;;;;;;0.00;0.00;;;;;;;;;;1735454;28;20219;-61
2023/03/23 08:59:26;;;;;;;0.00;0.00;;;;;;;;;;1737513;28;20265;-61
2023/03/23 09:00:18;;;;;;;0.00;0.00;;;;;;;;;;1734628;28;20211;-60
2023/03/23 09:01:11;;;;;;;0.00;0.00;;;;;;;;;;1736743;28;20227;-60
2023/03/23 09:02:02;;;;;;;0.00;0.00;;;;;;;;;;1734458;28;20207;-60
2023/03/23 09:02:56;;;;;;;0.00;0.00;;;;;;;;;;1738922;28;20219;-61
2023/03/23 09:03:48;;;;;;;0.00;0.00;;;;;;;;;;1734051;28;20231;-60
2023/03/23 09:04:42;;;;;;;0.00;0.00;;;;;;;;;;1738055;28;20220;-61
2023/03/23 09:05:33;;;;;;;0.00;0.00;;;;;;;;;;1735124;28;20260;-61
2023/03/23 09:06:25;;;;;;;0.00;0.00;;;;;;;;;;1735189;28;20218;-61
2023/03/23 09:07:16;;;;;;;0.00;0.00;;;;;;;;;;1737605;28;20215;-60
2023/03/23 09:08:09;;;;;;;0.00;0.00;;;;;;;;;;1738623;28;20203;-60
2023/03/23 09:09:01;;;;;;;0.00;0.00;;;;;;;;;;1736788;28;20212;-59
2023/03/23 09:09:53;;;;;;;0.00;0.00;;;;;;;;;;1738836;28;20294;-60
2023/03/23 09:10:45;;;;;;;0.00;0.00;;;;;;;;;;1735143;28;20249;-60
2023/03/23 09:11:37;;;;;;;0.00;0.00;;;;;;;;;;1738291;28;20273;-60
2023/03/23 09:12:29;;;;;;;0.00;0.00;;;;;;;;;;1736119;28;20274;-60
2023/03/23 09:13:21;;;;;;;0.00;0.00;;;;;;;;;;1735188;28;20212;-60
2023/03/23 09:14:12;;;;;;;0.00;0.00;;;;;;;;;;1734292;28;20675;-60
2023/03/23 09:15:08;;;;;;;0.00;0.00;;;;;;;;;;1735161;28;20914;-61
2023/03/23 09:16:00;;;;;;;0.00;0.00;;;;;;;;;;1733106;28;20245;-60
2023/03/23 09:16:51;;;;;;;0.00;0.00;;;;;;;;;;1736254;28;20212;-59
2023/03/23 09:17:44;;;;;;;0.00;0.00;;;;;;;;;;1737934;28;20210;-61
2023/03/23 09:18:36;;;;;;;0.00;0.00;;;;;;;;;;1737333;28;20327;-60
2023/03/23 09:19:28;;;;;;;0.00;0.00;;;;;;;;;;1739011;28;20216;-61
2023/03/23 09:20:21;;;;;;;0.00;0.00;;;;;;;;;;1734788;28;20240;-60
2023/03/23 09:21:13;;;;;;;0.00;0.00;;;;;;;;;;1737203;28;20288;-61
2023/03/23 09:22:04;;;;;;;0.00;0.00;;;;;;;;;;1735822;28;20644;-61
2023/03/23 09:22:57;;;;;;;0.00;0.00;;;;;;;;;;1739506;28;20237;-61
2023/03/23 09:23:48;;;;;;;0.00;0.00;;;;;;;;;;1737195;28;20246;-61
2023/03/23 09:24:40;;;;;;;0.00;0.00;;;;;;;;;;1738787;28;20232;-61
2023/03/23 09:25:32;;;;;;;0.00;0.00;;;;;;;;;;1735096;28;20248;-61
2023/03/23 09:26:24;;;;;;;0.00;0.00;;;;;;;;;;1738691;28;20298;-61
2023/03/23 09:27:16;;;;;;;0.00;0.00;;;;;;;;;;1735645;28;20212;-60
2023/03/23 09:28:07;;;;;;;0.00;0.00;;;;;;;;;;1738963;28;20204;-60
2023/03/23 09:28:59;;;;;;;0.00;0.00;;;;;;;;;;1736623;28;20204;-60
2023/03/23 09:29:51;;;;;;;0.00;0.00;;;;;;;;;;1731998;28;20200;-61
2023/03/23 09:30:44;;;;;;;0.00;0.00;;;;;;;;;;1734368;28;20496;-61
2023/03/23 09:31:36;;;;;;;0.00;0.00;;;;;;;;;;1737350;28;20337;-60
2023/03/23 09:32:28;;;;;;;0.00;0.00;;;;;;;;;;1735142;28;20244;-60
2023/03/23 09:33:19;;;;;;;0.00;0.00;;;;;;;;;;1737532;28;20753;-60
2023/03/23 09:34:13;;;;;;;0.00;0.00;;;;;;;;;;1736976;28;20628;-61
2023/03/23 09:35:07;;;;;;;0.00;0.00;;;;;;;;;;1737271;28;20708;-62
2023/03/23 09:35:59;;;;;;;0.00;0.00;;;;;;;;;;1732607;28;20228;-61
2023/03/23 09:36:51;;;;;;;0.00;0.00;;;;;;;;;;1732615;28;20206;-60
2023/03/23 09:37:44;;;;;;;0.00;0.00;;;;;;;;;;1737152;28;20208;-61
2023/03/23 09:38:36;;;;;;;0.00;0.00;;;;;;;;;;1736235;28;20212;-60
2023/03/23 09:39:28;;;;;;;0.00;0.00;;;;;;;;;;1737580;28;20208;-61
2023/03/23 09:40:20;;;;;;;0.00;0.00;;;;;;;;;;1729908;28;20307;-60
2023/03/23 09:41:16;;;;;;;0.00;0.00;;;;;;;;;;1731335;28;20190;-61
2023/03/23 09:42:16;;;;;;;0.00;0.00;;;;;;;;;;1731794;28;20193;-63
2023/03/23 09:43:15;;;;;;;0.00;0.00;;;;;;;;;;1734763;28;20338;-63
2023/03/23 09:44:09;;;;;;;0.00;0.00;;;;;;;;;;1730896;28;20421;-61
2023/03/23 09:45:06;;;;;;;0.00;0.00;;;;;;;;;;1732408;28;20586;-61
2023/03/23 09:46:01;;;;;;;0.00;0.00;;;;;;;;;;1729585;28;20236;-61
2023/03/23 09:46:57;;;;;;;0.00;0.00;;;;;;;;;;1731806;28;20243;-60
2023/03/23 09:48:04;;;;;;;0.00;0.00;;;;;;;;;;1731029;28;20262;-60
2023/03/23 09:48:57;;;;;;;0.00;0.00;;;;;;;;;;1731177;28;20224;-61
2023/03/23 09:49:52;;;;;;;0.00;0.00;;;;;;;;;;1733941;28;20274;-60
2023/03/23 09:50:46;;;;;;;0.00;0.00;;;;;;;;;;1735189;28;20247;-60
2023/03/23 09:51:42;;;;;;;0.00;0.00;;;;;;;;;;1738082;28;20284;-60
2023/03/23 09:52:38;;;;;;;0.00;0.00;;;;;;;;;;1733405;28;20220;-60
2023/03/23 09:53:34;;;;;;;0.00;0.00;;;;;;;;;;1735169;28;20444;-60
2023/03/23 09:54:28;;;;;;;0.00;0.00;;;;;;;;;;1734316;28;20725;-60
2023/03/23 09:55:20;;;;;;;0.00;0.00;;;;;;;;;;1729660;28;20219;-61
2023/03/23 09:56:14;;;;;;;0.00;0.00;;;;;;;;;;1737938;28;20208;-61
2023/03/23 09:57:11;;;;;;;0.00;0.00;;;;;;;;;;1737246;28;20203;-62
2023/03/23 09:58:11;;;;;;;0.00;0.00;;;;;;;;;;1734282;28;20551;-60
2023/03/23 09:59:06;;;;;;;0.00;0.00;;;;;;;;;;1734707;28;20200;-60
2023/03/23 10:00:04;;;;;;;0.00;0.00;;;;;;;;;;1736820;28;20242;-61
2023/03/23 10:00:58;;;;;;;0.00;0.00;;;;;;;;;;1729553;28;20243;-60
2023/03/23 10:01:53;;;;;;;0.00;0.00;;;;;;;;;;1736881;28;20213;-59
2023/03/23 10:02:49;;;;;;;0.00;0.00;;;;;;;;;;1731668;28;20220;-60
2023/03/23 10:03:42;;;;;;;0.00;0.00;;;;;;;;;;1737074;28;20240;-60
2023/03/23 10:04:37;;;;;;;0.00;0.00;;;;;;;;;;1736131;28;20613;-61
2023/03/23 10:05:33;;;;;;;0.00;0.00;;;;;;;;;;1730688;28;20212;-60
2023/03/23 10:06:24;;;;;;;0.00;0.00;;;;;;;;;;1738258;28;20307;-60
2023/03/23 10:07:17;;;;;;;0.00;0.00;;;;;;;;;;1737641;28;20331;-60
2023/03/23 10:08:10;;;;;;;0.00;0.00;;;;;;;;;;1738471;28;20211;-61
2023/03/23 10:09:05;;;;;;;0.00;0.00;;;;;;;;;;1735328;28;20235;-60
2023/03/23 10:09:57;;;;;;;0.00;0.00;;;;;;;;;;1733970;28;20224;-61
2023/03/23 10:10:53;;;;;;;0.00;0.00;;;;;;;;;;1733316;28;20319;-60
2023/03/23 10:11:50;;;;;;;0.00;0.00;;;;;;;;;;1738474;28;20219;-61
2023/03/23 10:12:44;;;;;;;0.00;0.00;;;;;;;;;;1732927;28;20220;-60
2023/03/23 10:13:49;;;;;;;0.00;0.00;;;;;;;;;;1736292;28;20761;-61
2023/03/23 10:14:47;;;;;;;0.00;0.00;;;;;;;;;;1734947;28;20228;-60
2023/03/23 10:15:40;;;;;;;0.00;0.00;;;;;;;;;;1730932;28;20235;-60
2023/03/23 10:16:33;;;;;;;0.00;0.00;;;;;;;;;;1735235;28;20258;-59
2023/03/23 10:17:28;;;;;;;0.00;0.00;;;;;;;;;;1737659;28;20235;-59
2023/03/23 10:18:25;;;;;;;0.00;0.00;;;;;;;;;;1738313;28;20587;-60
2023/03/23 10:19:19;;;;;;;0.00;0.00;;;;;;;;;;1734589;28;20657;-60
2023/03/23 10:20:19;;;;;;;0.00;0.00;;;;;;;;;;1738097;28;20890;-59
2023/03/23 10:21:15;;;;;;;0.00;0.00;;;;;;;;;;1730175;28;20237;-60
2023/03/23 10:22:11;;;;;;;0.00;0.00;;;;;;;;;;1737292;28;20203;-60
2023/03/23 10:23:15;;;;;;;0.00;0.00;;;;;;;;;;1737853;28;20247;-59
2023/03/23 10:24:09;;;;;;;0.00;0.00;;;;;;;;;;1737891;28;20626;-61
2023/03/23 10:25:05;;;;;;;0.00;0.00;;;;;;;;;;1738283;28;20257;-60
2023/03/23 10:25:58;;;;;;;0.00;0.00;;;;;;;;;;1729274;28;20657;-60
2023/03/23 10:27:00;;;;;;;0.00;0.00;;;;;;;;;;1737591;28;20665;-60
2023/03/23 10:27:55;;;;;;;0.00;0.00;;;;;;;;;;1737059;28;20220;-60
2023/03/23 10:28:49;;;;;;;0.00;0.00;;;;;;;;;;1737366;28;20211;-60
2023/03/23 10:29:43;;;;;;;0.00;0.00;;;;;;;;;;1735122;28;20281;-60
2023/03/23 10:30:36;;;;;;;0.00;0.00;;;;;;;;;;1731121;28;21314;-60
2023/03/23 10:31:29;;;;;;;0.00;0.00;;;;;;;;;;1734373;28;20908;-61
2023/03/23 10:32:23;;;;;;;0.00;0.00;;;;;;;;;;1731548;28;20267;-59
2023/03/23 10:33:16;;;;;;;0.00;0.00;;;;;;;;;;1732546;28;20216;-60
2023/03/23 10:34:11;;;;;;;0.00;0.00;;;;;;;;;;1734899;28;20208;-60
2023/03/23 10:35:04;;;;;;;0.00;0.00;;;;;;;;;;1738013;28;20563;-59
2023/03/23 10:36:00;;;;;;;0.00;0.00;;;;;;;;;;1731310;28;20231;-61
2023/03/23 10:36:55;;;;;;;0.00;0.00;;;;;;;;;;1731621;28;20232;-60
2023/03/23 10:37:50;;;;;;;0.00;0.00;;;;;;;;;;1736867;28;20246;-60
2023/03/23 10:38:44;;;;;;;0.00;0.00;;;;;;;;;;1737662;28;20215;-60
2023/03/23 10:39:40;;;;;;;0.00;0.00;;;;;;;;;;1736432;28;20215;-60
2023/03/23 10:40:33;;;;;;;0.00;0.00;;;;;;;;;;1733446;28;20853;-60
2023/03/23 10:41:25;;;;;;;0.00;0.00;;;;;;;;;;1737571;28;20705;-58
2023/03/23 10:42:24;;;;;;;0.00;0.00;;;;;;;;;;1737273;28;20618;-60
2023/03/23 10:43:16;;;;;;;0.00;0.00;;;;;;;;;;1737867;28;20645;-60
2023/03/23 10:44:10;;;;;;;0.00;0.00;;;;;;;;;;1734204;28;20204;-60
2023/03/23 10:45:10;;;;;;;0.00;0.00;;;;;;;;;;1732506;28;20208;-60
2023/03/23 10:46:02;;;;;;;0.00;0.00;;;;;;;;;;1729307;28;20228;-60
2023/03/23 10:46:57;;;;;;;0.00;0.00;;;;;;;;;;1731483;28;20239;-60
2023/03/23 10:47:51;;;;;;;0.00;0.00;;;;;;;;;;1730793;28;20216;-61
2023/03/23 10:48:43;;;;;;;0.00;0.00;;;;;;;;;;1731100;28;20207;-60
2023/03/23 10:49:39;;;;;;;0.00;0.00;;;;;;;;;;1737614;28;20219;-60
2023/03/23 10:50:32;;;;;;;0.00;0.00;;;;;;;;;;1732856;28;20237;-60
2023/03/23 10:51:26;;;;;;;0.00;0.00;;;;;;;;;;1733753;28;20215;-61
2023/03/23 10:52:26;;;;;;;0.00;0.00;;;;;;;;;;1735613;28;20237;-60
2023/03/23 10:53:19;;;;;;;0.00;0.00;;;;;;;;;;1731101;28;20204;-60
2023/03/23 10:54:10;;;;;;;0.00;0.00;;;;;;;;;;1734708;28;20672;-60
2023/03/23 10:55:05;;;;;;;0.00;0.00;;;;;;;;;;1732652;28;20206;-61
2023/03/23 10:55:58;;;;;;;0.00;0.00;;;;;;;;;;1729110;28;20615;-61
2023/03/23 10:56:50;;;;;;;0.00;0.00;;;;;;;;;;1737145;28;20217;-60
2023/03/23 10:57:42;;;;;;;0.00;0.00;;;;;;;;;;1736602;28;20274;-61
2023/03/23 10:58:35;;;;;;;0.00;0.00;;;;;;;;;;1734273;28;20207;-61
2023/03/23 10:59:27;;;;;;;0.10;0.10;;;;;;;;;;1737505;28;20302;-61
2023/03/23 11:00:21;;;;;;;0.00;0.00;;;;;;;;;;1736071;28;20281;-59
2023/03/23 11:01:14;;;;;;;0.00;0.00;;;;;;;;;;1731087;28;20224;-61
2023/03/23 11:02:12;;;;;;;0.00;0.00;;;;;;;;;;1731565;28;20212;-60
2023/03/23 11:03:06;;;;;;;0.00;0.00;;;;;;;;;;1738232;28;20195;-61
2023/03/23 11:03:59;;;;;;;0.00;0.00;;;;;;;;;;1731013;28;20313;-61
2023/03/23 11:05:04;;;;;;;0.00;0.00;;;;;;;;;;1733283;28;20212;-61
2023/03/23 11:05:58;;;;;;;0.00;0.00;;;;;;;;;;1728937;28;20248;-61
2023/03/23 11:06:53;;;;;;;0.00;0.00;;;;;;;;;;1737090;28;20222;-61
2023/03/23 11:07:50;;;;;;;0.10;0.10;;;;;;;;;;1731704;28;20216;-61
2023/03/23 11:08:49;;;;;;;0.00;0.00;;;;;;;;;;1735951;28;20603;-61
2023/03/23 11:09:52;;;;;;;0.00;0.00;;;;;;;;;;1733650;28;20223;-61
2023/03/23 11:10:49;;;;;;;0.00;0.00;;;;;;;;;;1735583;28;20706;-61
2023/03/23 11:11:42;;;;;;;0.00;0.00;;;;;;;;;;1737776;28;20679;-61
2023/03/23 11:12:35;;;;;;;0.00;0.00;;;;;;;;;;1733647;28;20299;-61
2023/03/23 11:13:28;;;;;;;0.00;0.00;;;;;;;;;;1731001;28;20208;-61
2023/03/23 11:14:21;;;;;;;0.00;0.00;;;;;;;;;;1735932;28;20265;-61
2023/03/23 11:15:22;;;;;;;0.00;0.00;;;;;;;;;;1735710;28;20280;-60
2023/03/23 11:16:24;;;;;;;0.00;0.00;;;;;;;;;;1732277;28;20201;-61
2023/03/23 11:17:21;;;;;;;0.03;0.03;;;;;;;;;;1735502;28;20211;-61
2023/03/23 11:18:13;;;;;;;0.00;0.00;;;;;;;;;;1734891;28;20247;-61
2023/03/23 11:19:13;;;;;;;0.00;0.00;;;;;;;;;;1737168;28;20671;-59
2023/03/23 11:20:11;;;;;;;0.00;0.00;;;;;;;;;;1736972;28;20234;-61
2023/03/23 11:21:03;;;;;;;0.00;0.00;;;;;;;;;;1734878;28;20456;-61
2023/03/23 11:21:59;;;;;;;0.00;0.00;;;;;;;;;;1731449;28;20764;-61
2023/03/23 11:22:51;;;;;;;0.00;0.00;;;;;;;;;;1730429;28;20219;-61
2023/03/23 11:23:44;;;;;;;0.00;0.00;;;;;;;;;;1735408;28;20232;-61
2023/03/23 11:24:37;;;;;;;0.00;0.00;;;;;;;;;;1734258;28;20646;-61
2023/03/23 11:25:29;;;;;;;0.00;0.00;;;;;;;;;;1735435;28;20214;-61
2023/03/23 11:26:22;;;;;;;0.00;0.00;;;;;;;;;;1737703;28;20728;-61
2023/03/23 11:27:15;;;;;;;0.00;0.00;;;;;;;;;;1736633;28;20204;-61
2023/03/23 11:28:08;;;;;;;0.00;0.00;;;;;;;;;;1730976;28;20319;-60
2023/03/23 11:29:04;;;;;;;0.00;0.00;;;;;;;;;;1734936;28;20581;-61
2023/03/23 11:29:57;;;;;;;0.00;0.00;;;;;;;;;;1730924;28;20220;-61
2023/03/23 11:30:49;;;;;;;0.00;0.00;;;;;;;;;;1732608;28;20296;-61
2023/03/23 11:31:41;;;;;;;0.00;0.00;;;;;;;;;;1737565;28;20219;-61
2023/03/23 11:32:33;;;;;;;0.00;0.00;;;;;;;;;;1734904;28;20226;-61
2023/03/23 11:33:25;;;;;;;0.00;0.00;;;;;;;;;;1733469;28;20319;-61
2023/03/23 11:34:18;;;;;;;0.00;0.00;;;;;;;;;;1733182;28;20974;-61
2023/03/23 11:35:16;;;;;;;0.00;0.00;;;;;;;;;;1738320;28;20269;-59
2023/03/23 11:36:09;;;;;;;0.00;0.00;;;;;;;;;;1730247;28;20728;-60
2023/03/23 11:37:02;;;;;;;0.00;0.00;;;;;;;;;;1738235;28;20237;-61
2023/03/23 11:37:56;;;;;;;0.00;0.00;;;;;;;;;;1732200;28;20591;-61
2023/03/23 11:38:47;;;;;;;0.00;0.00;;;;;;;;;;1736279;28;20326;-61
2023/03/23 11:39:48;;;;;;;0.00;0.00;;;;;;;;;;1735685;28;20241;-62
2023/03/23 11:40:45;;;;;;;0.00;0.00;;;;;;;;;;1736653;28;20235;-61
2023/03/23 11:41:39;;;;;;;0.00;0.00;;;;;;;;;;1732587;28;20270;-61
2023/03/23 11:42:35;;;;;;;0.00;0.00;;;;;;;;;;1736240;28;20249;-61
2023/03/23 11:43:27;;;;;;;0.00;0.00;;;;;;;;;;1739178;28;20302;-61
2023/03/23 11:44:18;;;;;;;0.00;0.00;;;;;;;;;;1734926;28;20683;-62
2023/03/23 11:45:19;;;;;;;0.00;0.00;;;;;;;;;;1739300;28;20614;-61
2023/03/23 11:46:13;;;;;;;0.00;0.00;;;;;;;;;;1731046;28;20455;-61
2023/03/23 11:47:09;;;;;;;0.00;0.00;;;;;;;;;;1738930;28;20726;-62
2023/03/23 11:48:04;;;;;;;0.00;0.00;;;;;;;;;;1734857;28;20208;-61
2023/03/23 11:48:59;;;;;;;0.00;0.00;;;;;;;;;;1732398;28;20884;-62
2023/03/23 11:49:52;;;;;;;0.00;0.00;;;;;;;;;;1734336;28;20216;-62
2023/03/23 11:50:52;;;;;;;0.00;0.00;;;;;;;;;;1731961;28;20726;-62
2023/03/23 11:51:46;;;;;;;0.00;0.00;;;;;;;;;;1732422;28;20228;-62
2023/03/23 11:52:41;;;;;;;0.00;0.00;;;;;;;;;;1733569;28;20725;-61
2023/03/23 11:53:38;;;;;;;0.00;0.00;;;;;;;;;;1732153;28;20240;-61
2023/03/23 11:54:31;;;;;;;0.00;0.00;;;;;;;;;;1738401;28;20310;-62
2023/03/23 11:55:24;;;;;;;0.00;0.00;;;;;;;;;;1737067;28;20207;-61
2023/03/23 11:56:20;;;;;;;0.00;0.00;;;;;;;;;;1737821;28;20207;-61
2023/03/23 11:57:13;;;;;;;0.00;0.00;;;;;;;;;;1733594;28;20188;-61
2023/03/23 11:58:09;;;;;;;0.00;0.00;;;;;;;;;;1736028;28;20251;-61
2023/03/23 11:59:04;;;;;;;0.00;0.00;;;;;;;;;;1732023;28;20213;-61
2023/03/23 11:59:59;;;;;;;0.00;0.00;;;;;;;;;;1739028;28;20266;-62
2023/03/23 12:00:55;;;;;;;0.00;0.00;;;;;;;;;;1732415;28;20263;-61
2023/03/23 12:01:52;;;;;;;0.00;0.00;;;;;;;;;;1737754;28;20220;-61
2023/03/23 12:02:50;;;;;;;0.00;0.00;;;;;;;;;;1737431;28;20328;-61
2023/03/23 12:03:59;;;;;;;0.00;0.00;;;;;;;;;;1734201;28;20240;-61
2023/03/23 12:05:11;;;;;;;0.00;0.00;;;;;;;;;;1738455;28;20208;-61
2023/03/23 12:06:03;;;;;;;0.00;0.00;;;;;;;;;;1730255;28;20607;-61
2023/03/23 12:06:58;;;;;;;0.00;0.00;;;;;;;;;;1738465;28;20658;-61
2023/03/23 12:07:55;;;;;;;0.00;0.00;;;;;;;;;;1732965;28;20301;-61
2023/03/23 12:08:56;;;;;;;0.00;0.00;;;;;;;;;;1736508;28;20212;-61
2023/03/23 12:09:50;;;;;;;0.00;0.00;;;;;;;;;;1737689;28;20306;-61
2023/03/23 12:10:45;;;;;;;0.00;0.00;;;;;;;;;;1733935;28;20278;-61
2023/03/23 12:11:40;;;;;;;0.00;0.00;;;;;;;;;;1731854;28;20677;-61
2023/03/23 12:12:38;;;;;;;0.00;0.00;;;;;;;;;;1733611;28;20702;-61
2023/03/23 12:13:35;;;;;;;0.00;0.00;;;;;;;;;;1734945;28;20243;-61
2023/03/23 12:14:33;;;;;;;0.00;0.00;;;;;;;;;;1734828;28;20212;-61
2023/03/23 12:15:26;;;;;;;0.00;0.00;;;;;;;;;;1736711;28;20215;-61
2023/03/23 12:16:22;;;;;;;0.00;0.00;;;;;;;;;;1737536;28;20192;-61
2023/03/23 12:17:19;;;;;;;0.00;0.00;;;;;;;;;;1733186;28;20189;-61
2023/03/23 12:18:16;;;;;;;0.00;0.00;;;;;;;;;;1738535;28;20196;-61
2023/03/23 12:19:11;;;;;;;0.00;0.00;;;;;;;;;;1738603;28;20711;-61
2023/03/23 12:20:10;;;;;;;0.00;0.00;;;;;;;;;;1739094;28;20210;-61
2023/03/23 12:21:15;;;;;;;0.00;0.00;;;;;;;;;;1730297;28;20809;-61
2023/03/23 12:22:13;;;;;;;0.00;0.00;;;;;;;;;;1732309;28;20249;-61
2023/03/23 12:23:09;;;;;;;0.00;0.00;;;;;;;;;;1735759;28;20211;-61
2023/03/23 12:24:06;;;;;;;0.00;0.00;;;;;;;;;;1737529;28;20236;-61
2023/03/23 12:25:05;;;;;;;0.00;0.00;;;;;;;;;;1739186;28;20269;-61
2023/03/23 12:26:16;;;;;;;0.00;0.00;;;;;;;;;;1731465;28;20242;-61
2023/03/23 12:27:13;;;;;;;0.00;0.00;;;;;;;;;;1731175;28;20204;-59
2023/03/23 12:28:07;;;;;;;0.00;0.00;;;;;;;;;;1738831;28;20232;-61
2023/03/23 12:29:10;;;;;;;0.00;0.00;;;;;;;;;;1731817;28;20204;-60
2023/03/23 12:30:05;;;;;;;0.00;0.00;;;;;;;;;;1732047;28;20648;-61
2023/03/23 12:31:01;;;;;;;0.00;0.00;;;;;;;;;;1734806;28;20673;-61
2023/03/23 12:31:59;;;;;;;0.00;0.00;;;;;;;;;;1738714;28;20639;-61
2023/03/23 12:32:55;;;;;;;0.00;0.00;;;;;;;;;;1732363;28;20208;-61
2023/03/23 12:33:55;;;;;;;0.00;0.00;;;;;;;;;;1736046;28;20236;-61
2023/03/23 12:34:49;;;;;;;0.00;0.00;;;;;;;;;;1733770;28;20208;-61
2023/03/23 12:35:46;;;;;;;0.00;0.00;;;;;;;;;;1734074;28;20242;-60
2023/03/23 12:36:46;;;;;;;0.00;0.00;;;;;;;;;;1738524;28;20227;-61
2023/03/23 12:37:44;;;;;;;0.00;0.00;;;;;;;;;;1734228;28;20687;-61
2023/03/23 12:38:46;;;;;;;0.00;0.00;;;;;;;;;;1731646;28;20720;-60
2023/03/23 12:39:50;;;;;;;0.00;0.00;;;;;;;;;;1735416;28;20207;-61
2023/03/23 12:40:45;;;;;;;0.00;0.00;;;;;;;;;;1731340;28;20244;-61
2023/03/23 12:41:40;;;;;;;0.00;0.00;;;;;;;;;;1735852;28;20242;-61
2023/03/23 12:42:35;;;;;;;0.00;0.00;;;;;;;;;;1737573;28;20211;-61
2023/03/23 12:43:29;;;;;;;0.00;0.00;;;;;;;;;;1735935;28;20265;-61
2023/03/23 12:44:25;;;;;;;0.00;0.00;;;;;;;;;;1732503;28;20201;-61
2023/03/23 12:45:22;;;;;;;0.00;0.00;;;;;;;;;;1736913;28;20198;-59
2023/03/23 12:46:24;;;;;;;0.00;0.00;;;;;;;;;;1738633;28;20725;-61
2023/03/23 12:47:22;;;;;;;0.00;0.00;;;;;;;;;;1736540;28;20689;-61
2023/03/23 12:48:16;;;;;;;0.00;0.00;;;;;;;;;;1738771;28;20196;-60
2023/03/23 12:49:11;;;;;;;0.00;0.00;;;;;;;;;;1738540;28;20216;-62
2023/03/23 12:50:08;;;;;;;0.00;0.00;;;;;;;;;;1732162;28;20219;-61
2023/03/23 12:51:07;;;;;;;0.00;0.00;;;;;;;;;;1734575;28;20242;-61
2023/03/23 12:52:01;;;;;;;0.00;0.00;;;;;;;;;;1738772;28;20214;-60
2023/03/23 12:52:54;;;;;;;0.00;0.00;;;;;;;;;;1733729;28;20216;-61
2023/03/23 12:53:51;;;;;;;0.00;0.00;;;;;;;;;;1733876;28;20248;-60
2023/03/23 12:54:48;;;;;;;0.00;0.00;;;;;;;;;;1738458;28;20593;-61
2023/03/23 12:55:46;;;;;;;0.00;0.00;;;;;;;;;;1736405;28;20242;-61
2023/03/23 12:56:39;;;;;;;0.00;0.00;;;;;;;;;;1738615;28;20665;-61
2023/03/23 12:57:35;;;;;;;0.00;0.00;;;;;;;;;;1735970;28;20210;-61
2023/03/23 12:58:27;;;;;;;0.00;0.00;;;;;;;;;;1734082;28;20532;-61
2023/03/23 12:59:21;;;;;;;0.00;0.00;;;;;;;;;;1732606;28;20265;-61
2023/03/23 13:00:15;;;;;;;0.00;0.00;;;;;;;;;;1731403;28;20274;-60
2023/03/23 13:01:11;;;;;;;0.00;0.00;;;;;;;;;;1731467;28;20252;-60
2023/03/23 13:02:05;;;;;;;0.00;0.00;;;;;;;;;;1732025;28;20282;-61
2023/03/23 13:03:01;;;;;;;0.00;0.00;;;;;;;;;;1737552;28;20240;-61
2023/03/23 13:03:55;;;;;;;0.00;0.00;;;;;;;;;;1738245;28;20280;-61
2023/03/23 13:04:49;;;;;;;0.00;0.00;;;;;;;;;;1737021;28;20260;-61
2023/03/23 13:05:44;;;;;;;0.00;0.00;;;;;;;;;;1736106;28;20242;-61
2023/03/23 13:06:37;;;;;;;0.00;0.00;;;;;;;;;;1738472;28;20225;-61
2023/03/23 13:07:31;;;;;;;0.00;0.00;;;;;;;;;;1736431;28;20280;-60
2023/03/23 13:08:27;;;;;;;0.00;0.00;;;;;;;;;;1738532;28;20218;-61
2023/03/23 13:09:22;;;;;;;0.00;0.00;;;;;;;;;;1738021;28;20199;-61
2023/03/23 13:10:19;;;;;;;0.00;0.00;;;;;;;;;;1736583;28;20784;-60